sensor_id;sensor_type;location;lat;lon;timestamp;pressure;altitude;pressure_sealevel;temperature;humidity
78407;BME280;67692;51.074;-1.790;2023-03-01T00:00:39;102645.09;;;5.82;72.44
78407;BME280;67692;51.074;-1.790;2023-03-01T00:03:06;102651.03;;;5.85;72.44
78407;BME280;67692;51.074;-1.790;2023-03-01T00:05:33;102657.78;;;5.89;72.30
78407;BME280;67692;51.074;-1.790;2023-03-01T00:08:00;102650.16;;;5.85;72.69
78407;BME280;67692;51.074;-1.790;2023-03-01T00:10:26;102657.94;;;5.82;72.98
78407;BME280;67692;51.074;-1.790;2023-03-01T00:12:54;102657.16;;;5.77;73.13
78407;BME280;67692;51.074;-1.790;2023-03-01T00:15:21;102655.44;;;5.79;73.32
78407;BME280;67692;51.074;-1.790;2023-03-01T00:17:48;102654.53;;;5.81;72.84
78407;BME280;67692;51.074;-1.790;2023-03-01T00:20:14;102659.78;;;5.74;73.11
78407;BME280;67692;51.074;-1.790;2023-03-01T00:22:41;102653.78;;;5.75;73.29
78407;BME280;67692;51.074;-1.790;2023-03-01T00:25:08;102652.94;;;5.73;73.64
78407;BME280;67692;51.074;-1.790;2023-03-01T00:27:35;102647.06;;;5.67;73.47
78407;BME280;67692;51.074;-1.790;2023-03-01T00:30:04;102652.25;;;5.64;73.96
78407;BME280;67692;51.074;-1.790;2023-03-01T00:32:31;102650.63;;;5.57;73.97
78407;BME280;67692;51.074;-1.790;2023-03-01T00:34:57;102664.31;;;5.59;74.27
78407;BME280;67692;51.074;-1.790;2023-03-01T00:37:24;102654.88;;;5.60;74.12
78407;BME280;67692;51.074;-1.790;2023-03-01T00:39:51;102648.22;;;5.50;73.96
78407;BME280;67692;51.074;-1.790;2023-03-01T00:42:17;102658.50;;;5.47;74.20
78407;BME280;67692;51.074;-1.790;2023-03-01T00:44:44;102660.13;;;5.54;73.85
78407;BME280;67692;51.074;-1.790;2023-03-01T00:47:12;102658.47;;;5.51;74.03
78407;BME280;67692;51.074;-1.790;2023-03-01T00:49:39;102659.34;;;5.47;73.89
78407;BME280;67692;51.074;-1.790;2023-03-01T00:52:05;102659.34;;;5.47;74.49
78407;BME280;67692;51.074;-1.790;2023-03-01T00:54:32;102662.72;;;5.52;74.01
78407;BME280;67692;51.074;-1.790;2023-03-01T00:56:58;102655.78;;;5.57;73.81
78407;BME280;67692;51.074;-1.790;2023-03-01T00:59:25;102660.03;;;5.58;73.89
78407;BME280;67692;51.074;-1.790;2023-03-01T01:01:51;102661.88;;;5.52;73.70
78407;BME280;67692;51.074;-1.790;2023-03-01T01:04:19;102659.25;;;5.55;73.98
78407;BME280;67692;51.074;-1.790;2023-03-01T01:06:46;102654.19;;;5.50;74.18
78407;BME280;67692;51.074;-1.790;2023-03-01T01:09:16;102649.13;;;5.44;74.02
78407;BME280;67692;51.074;-1.790;2023-03-01T01:11:43;102652.53;;;5.46;74.11
78407;BME280;67692;51.074;-1.790;2023-03-01T01:14:10;102663.75;;;5.41;74.13
78407;BME280;67692;51.074;-1.790;2023-03-01T01:16:37;102656.06;;;5.41;74.40
78407;BME280;67692;51.074;-1.790;2023-03-01T01:19:03;102653.50;;;5.39;74.36
78407;BME280;67692;51.074;-1.790;2023-03-01T01:21:31;102653.38;;;5.47;74.53
78407;BME280;67692;51.074;-1.790;2023-03-01T01:23:58;102662.00;;;5.43;74.55
78407;BME280;67692;51.074;-1.790;2023-03-01T01:26:27;102661.22;;;5.39;74.52
78407;BME280;67692;51.074;-1.790;2023-03-01T01:28:54;102665.63;;;5.31;74.90
78407;BME280;67692;51.074;-1.790;2023-03-01T01:31:21;102652.72;;;5.34;74.99
78407;BME280;67692;51.074;-1.790;2023-03-01T01:33:49;102650.88;;;5.42;74.80
78407;BME280;67692;51.074;-1.790;2023-03-01T01:36:16;102657.84;;;5.37;74.55
78407;BME280;67692;51.074;-1.790;2023-03-01T01:38:45;102662.19;;;5.30;74.69
78407;BME280;67692;51.074;-1.790;2023-03-01T01:41:12;102647.59;;;5.32;74.86
78407;BME280;67692;51.074;-1.790;2023-03-01T01:43:40;102651.75;;;5.43;74.12
78407;BME280;67692;51.074;-1.790;2023-03-01T01:46:16;102655.00;;;5.54;74.35
78407;BME280;67692;51.074;-1.790;2023-03-01T01:48:48;102653.97;;;5.62;73.73
78407;BME280;67692;51.074;-1.790;2023-03-01T01:51:19;102649.78;;;5.57;74.13
78407;BME280;67692;51.074;-1.790;2023-03-01T01:53:52;102640.41;;;5.54;73.97
78407;BME280;67692;51.074;-1.790;2023-03-01T01:56:20;102642.16;;;5.52;73.74
78407;BME280;67692;51.074;-1.790;2023-03-01T01:58:48;102642.19;;;5.49;74.31
78407;BME280;67692;51.074;-1.790;2023-03-01T02:01:15;102640.38;;;5.57;73.90
78407;BME280;67692;51.074;-1.790;2023-03-01T02:03:43;102643.81;;;5.56;74.18
78407;BME280;67692;51.074;-1.790;2023-03-01T02:06:18;102636.78;;;5.67;73.75
78407;BME280;67692;51.074;-1.790;2023-03-01T02:08:46;102636.88;;;5.60;73.45
78407;BME280;67692;51.074;-1.790;2023-03-01T02:11:17;102634.38;;;5.57;73.42
78407;BME280;67692;51.074;-1.790;2023-03-01T02:13:44;102630.88;;;5.61;73.67
78407;BME280;67692;51.074;-1.790;2023-03-01T02:16:14;102634.50;;;5.51;73.79
78407;BME280;67692;51.074;-1.790;2023-03-01T02:18:42;102636.19;;;5.52;73.90
78407;BME280;67692;51.074;-1.790;2023-03-01T02:21:17;102626.59;;;5.61;74.13
78407;BME280;67692;51.074;-1.790;2023-03-01T02:23:47;102622.13;;;5.71;73.41
78407;BME280;67692;51.074;-1.790;2023-03-01T02:26:20;102618.75;;;5.69;73.24
78407;BME280;67692;51.074;-1.790;2023-03-01T02:28:49;102619.66;;;5.66;72.80
78407;BME280;67692;51.074;-1.790;2023-03-01T02:31:18;102620.56;;;5.62;73.67
78407;BME280;67692;51.074;-1.790;2023-03-01T02:34:03;102619.06;;;5.51;73.91
78407;BME280;67692;51.074;-1.790;2023-03-01T02:36:34;102604.53;;;5.48;73.59
78407;BME280;67692;51.074;-1.790;2023-03-01T02:39:03;102613.84;;;5.55;73.42
78407;BME280;67692;51.074;-1.790;2023-03-01T02:41:35;102602.63;;;5.59;73.81
78407;BME280;67692;51.074;-1.790;2023-03-01T02:44:04;102608.91;;;5.43;74.07
78407;BME280;67692;51.074;-1.790;2023-03-01T02:46:30;102609.91;;;5.36;74.19
78407;BME280;67692;51.074;-1.790;2023-03-01T02:48:58;102597.97;;;5.32;74.64
78407;BME280;67692;51.074;-1.790;2023-03-01T02:51:34;102608.88;;;5.45;74.37
78407;BME280;67692;51.074;-1.790;2023-03-01T02:54:10;102603.81;;;5.42;74.07
78407;BME280;67692;51.074;-1.790;2023-03-01T02:56:40;102601.34;;;5.34;74.51
78407;BME280;67692;51.074;-1.790;2023-03-01T02:59:09;102599.00;;;5.20;74.53
78407;BME280;67692;51.074;-1.790;2023-03-01T03:01:35;102609.28;;;5.22;75.11
78407;BME280;67692;51.074;-1.790;2023-03-01T03:04:06;102602.44;;;5.19;75.06
78407;BME280;67692;51.074;-1.790;2023-03-01T03:06:33;102597.28;;;5.22;74.66
78407;BME280;67692;51.074;-1.790;2023-03-01T03:09:00;102600.81;;;5.15;75.07
78407;BME280;67692;51.074;-1.790;2023-03-01T03:11:26;102599.94;;;5.15;74.59
78407;BME280;67692;51.074;-1.790;2023-03-01T03:13:53;102596.38;;;5.25;74.87
78407;BME280;67692;51.074;-1.790;2023-03-01T03:16:21;102600.72;;;5.21;74.78
78407;BME280;67692;51.074;-1.790;2023-03-01T03:18:48;102587.84;;;5.23;74.58
78407;BME280;67692;51.074;-1.790;2023-03-01T03:21:15;102589.50;;;5.27;74.83
78407;BME280;67692;51.074;-1.790;2023-03-01T03:23:42;102584.25;;;5.33;74.73
78407;BME280;67692;51.074;-1.790;2023-03-01T03:26:08;102587.59;;;5.38;74.83
78407;BME280;67692;51.074;-1.790;2023-03-01T03:28:38;102585.91;;;5.37;74.55
78407;BME280;67692;51.074;-1.790;2023-03-01T03:31:07;102592.75;;;5.38;74.45
78407;BME280;67692;51.074;-1.790;2023-03-01T03:33:35;102583.38;;;5.35;74.48
78407;BME280;67692;51.074;-1.790;2023-03-01T03:36:02;102587.63;;;5.36;74.65
78407;BME280;67692;51.074;-1.790;2023-03-01T03:38:29;102573.81;;;5.42;74.23
78407;BME280;67692;51.074;-1.790;2023-03-01T03:41:00;102578.16;;;5.40;74.33
78407;BME280;67692;51.074;-1.790;2023-03-01T03:43:30;102576.59;;;5.30;74.01
78407;BME280;67692;51.074;-1.790;2023-03-01T03:45:56;102570.53;;;5.34;74.31
78407;BME280;67692;51.074;-1.790;2023-03-01T03:48:23;102569.03;;;5.22;74.70
78407;BME280;67692;51.074;-1.790;2023-03-01T03:50:53;102567.25;;;5.26;74.93
78407;BME280;67692;51.074;-1.790;2023-03-01T03:53:20;102566.22;;;5.36;74.53
78407;BME280;67692;51.074;-1.790;2023-03-01T03:55:48;102565.41;;;5.32;73.89
78407;BME280;67692;51.074;-1.790;2023-03-01T03:58:17;102561.94;;;5.35;74.46
78407;BME280;67692;51.074;-1.790;2023-03-01T04:00:47;102563.06;;;5.22;74.21
78407;BME280;67692;51.074;-1.790;2023-03-01T04:03:16;102569.00;;;5.24;74.30
78407;BME280;67692;51.074;-1.790;2023-03-01T04:05:44;102564.63;;;5.29;74.08
78407;BME280;67692;51.074;-1.790;2023-03-01T04:08:12;102558.66;;;5.27;74.65
78407;BME280;67692;51.074;-1.790;2023-03-01T04:10:42;102556.09;;;5.27;74.32
78407;BME280;67692;51.074;-1.790;2023-03-01T04:13:11;102551.00;;;5.25;74.61
78407;BME280;67692;51.074;-1.790;2023-03-01T04:15:38;102554.34;;;5.29;74.98
78407;BME280;67692;51.074;-1.790;2023-03-01T04:18:06;102553.72;;;5.15;75.03
78407;BME280;67692;51.074;-1.790;2023-03-01T04:20:34;102549.50;;;5.12;75.34
78407;BME280;67692;51.074;-1.790;2023-03-01T04:23:03;102551.22;;;5.12;75.40
78407;BME280;67692;51.074;-1.790;2023-03-01T04:25:38;102541.19;;;4.96;76.15
78407;BME280;67692;51.074;-1.790;2023-03-01T04:28:05;102541.91;;;5.04;76.29
78407;BME280;67692;51.074;-1.790;2023-03-01T04:30:32;102541.97;;;5.01;76.13
78407;BME280;67692;51.074;-1.790;2023-03-01T04:33:01;102543.59;;;5.05;75.43
78407;BME280;67692;51.074;-1.790;2023-03-01T04:35:28;102547.09;;;5.01;76.15
78407;BME280;67692;51.074;-1.790;2023-03-01T04:37:55;102545.47;;;4.97;76.00
78407;BME280;67692;51.074;-1.790;2023-03-01T04:40:21;102540.41;;;4.91;76.42
78407;BME280;67692;51.074;-1.790;2023-03-01T04:42:49;102539.31;;;5.07;76.64
78407;BME280;67692;51.074;-1.790;2023-03-01T04:45:16;102534.19;;;5.06;76.66
78407;BME280;67692;51.074;-1.790;2023-03-01T04:47:44;102529.88;;;5.10;76.67
78407;BME280;67692;51.074;-1.790;2023-03-01T04:50:13;102534.31;;;4.98;76.87
78407;BME280;67692;51.074;-1.790;2023-03-01T04:52:40;102538.56;;;4.99;77.64
78407;BME280;67692;51.074;-1.790;2023-03-01T04:55:08;102537.72;;;4.99;77.40
78407;BME280;67692;51.074;-1.790;2023-03-01T04:57:35;102531.75;;;4.98;77.17
78407;BME280;67692;51.074;-1.790;2023-03-01T05:00:05;102535.19;;;4.97;77.70
78407;BME280;67692;51.074;-1.790;2023-03-01T05:02:46;102532.53;;;5.02;77.21
78407;BME280;67692;51.074;-1.790;2023-03-01T05:05:14;102523.06;;;5.05;77.35
78407;BME280;67692;51.074;-1.790;2023-03-01T05:07:41;102534.31;;;4.98;77.00
78407;BME280;67692;51.074;-1.790;2023-03-01T05:10:08;102535.19;;;4.97;76.91
78407;BME280;67692;51.074;-1.790;2023-03-01T05:12:35;102526.56;;;5.01;77.33
78407;BME280;67692;51.074;-1.790;2023-03-01T05:15:05;102533.63;;;4.87;76.92
78407;BME280;67692;51.074;-1.790;2023-03-01T05:17:32;102529.28;;;4.91;77.63
78407;BME280;67692;51.074;-1.790;2023-03-01T05:19:59;102524.97;;;4.94;76.75
78407;BME280;67692;51.074;-1.790;2023-03-01T05:22:26;102524.88;;;5.00;77.01
78407;BME280;67692;51.074;-1.790;2023-03-01T05:24:53;102520.59;;;4.99;76.78
78407;BME280;67692;51.074;-1.790;2023-03-01T05:27:20;102521.44;;;5.00;76.73
78407;BME280;67692;51.074;-1.790;2023-03-01T05:29:47;102520.63;;;4.98;77.26
78407;BME280;67692;51.074;-1.790;2023-03-01T05:32:15;102516.47;;;4.89;77.25
78407;BME280;67692;51.074;-1.790;2023-03-01T05:34:42;102515.59;;;4.90;76.74
78407;BME280;67692;51.074;-1.790;2023-03-01T05:37:09;102509.59;;;4.91;76.67
78407;BME280;67692;51.074;-1.790;2023-03-01T05:39:36;102508.78;;;4.89;76.27
78407;BME280;67692;51.074;-1.790;2023-03-01T05:42:02;102509.66;;;4.88;76.40
78407;BME280;67692;51.074;-1.790;2023-03-01T05:44:29;102500.22;;;4.89;76.43
78407;BME280;67692;51.074;-1.790;2023-03-01T05:46:57;102501.03;;;4.94;76.10
78407;BME280;67692;51.074;-1.790;2023-03-01T05:49:25;102507.84;;;4.96;75.84
78407;BME280;67692;51.074;-1.790;2023-03-01T05:51:52;102509.59;;;4.91;76.11
78407;BME280;67692;51.074;-1.790;2023-03-01T05:54:20;102506.28;;;4.85;76.36
78407;BME280;67692;51.074;-1.790;2023-03-01T05:56:47;102503.66;;;4.89;76.71
78407;BME280;67692;51.074;-1.790;2023-03-01T05:59:14;102501.06;;;4.92;76.39
78407;BME280;67692;51.074;-1.790;2023-03-01T06:01:41;102500.19;;;4.93;75.65
78407;BME280;67692;51.074;-1.790;2023-03-01T06:04:08;102497.63;;;4.93;76.34
78407;BME280;67692;51.074;-1.790;2023-03-01T06:06:37;102500.09;;;4.98;76.40
78407;BME280;67692;51.074;-1.790;2023-03-01T06:09:04;102504.34;;;5.00;75.46
78407;BME280;67692;51.074;-1.790;2023-03-01T06:11:33;102506.88;;;5.02;75.48
78407;BME280;67692;51.074;-1.790;2023-03-01T06:13:59;102504.38;;;4.97;75.19
78407;BME280;67692;51.074;-1.790;2023-03-01T06:16:26;102505.31;;;4.93;75.76
78407;BME280;67692;51.074;-1.790;2023-03-01T06:18:53;102503.63;;;4.92;76.44
78407;BME280;67692;51.074;-1.790;2023-03-01T06:21:19;102501.84;;;4.96;75.76
78407;BME280;67692;51.074;-1.790;2023-03-01T06:23:47;102505.16;;;5.02;75.77
78407;BME280;67692;51.074;-1.790;2023-03-01T06:26:14;102498.38;;;4.98;75.85
78407;BME280;67692;51.074;-1.790;2023-03-01T06:28:40;102502.53;;;5.05;75.45
78407;BME280;67692;51.074;-1.790;2023-03-01T06:31:07;102507.78;;;4.99;75.36
78407;BME280;67692;51.074;-1.790;2023-03-01T06:33:33;102505.31;;;4.93;75.58
78407;BME280;67692;51.074;-1.790;2023-03-01T06:36:01;102505.22;;;4.99;75.81
78407;BME280;67692;51.074;-1.790;2023-03-01T06:38:27;102500.28;;;4.86;75.71
78407;BME280;67692;51.074;-1.790;2023-03-01T06:40:55;102499.34;;;4.91;75.74
78407;BME280;67692;51.074;-1.790;2023-03-01T06:43:22;102498.41;;;4.97;75.46
78407;BME280;67692;51.074;-1.790;2023-03-01T06:45:49;102506.09;;;4.98;75.66
78407;BME280;67692;51.074;-1.790;2023-03-01T06:48:16;102504.50;;;4.90;75.51
78407;BME280;67692;51.074;-1.790;2023-03-01T06:50:42;102502.84;;;4.87;75.89
78407;BME280;67692;51.074;-1.790;2023-03-01T06:53:09;102502.78;;;4.90;76.35
78407;BME280;67692;51.074;-1.790;2023-03-01T06:55:35;102513.72;;;5.01;76.36
78407;BME280;67692;51.074;-1.790;2023-03-01T06:58:03;102512.78;;;5.05;76.26
78407;BME280;67692;51.074;-1.790;2023-03-01T07:00:31;102514.50;;;5.08;75.64
78407;BME280;67692;51.074;-1.790;2023-03-01T07:02:58;102523.06;;;5.05;75.93
78407;BME280;67692;51.074;-1.790;2023-03-01T07:05:25;102524.00;;;5.01;75.89
78407;BME280;67692;51.074;-1.790;2023-03-01T07:07:53;102531.69;;;5.01;76.49
78407;BME280;67692;51.074;-1.790;2023-03-01T07:10:20;102527.41;;;5.02;75.96
78407;BME280;67692;51.074;-1.790;2023-03-01T07:12:47;102534.19;;;5.04;75.56
78407;BME280;67692;51.074;-1.790;2023-03-01T07:15:15;102533.31;;;5.05;76.06
78407;BME280;67692;51.074;-1.790;2023-03-01T07:17:42;102535.06;;;5.06;75.33
78407;BME280;67692;51.074;-1.790;2023-03-01T07:20:10;102534.13;;;5.11;75.71
78407;BME280;67692;51.074;-1.790;2023-03-01T07:22:39;102540.06;;;5.13;75.52
78407;BME280;67692;51.074;-1.790;2023-03-01T07:25:06;102530.72;;;5.10;75.31
78407;BME280;67692;51.074;-1.790;2023-03-01T07:27:33;102541.69;;;5.18;75.50
78407;BME280;67692;51.074;-1.790;2023-03-01T07:30:00;102539.94;;;5.22;75.17
78407;BME280;67692;51.074;-1.790;2023-03-01T07:32:28;102541.75;;;5.15;74.97
78407;BME280;67692;51.074;-1.790;2023-03-01T07:34:54;102538.38;;;5.12;75.24
78407;BME280;67692;51.074;-1.790;2023-03-01T07:37:21;102550.34;;;5.13;75.07
78407;BME280;67692;51.074;-1.790;2023-03-01T07:39:47;102547.69;;;5.17;75.42
78407;BME280;67692;51.074;-1.790;2023-03-01T07:42:14;102547.63;;;5.20;74.82
78407;BME280;67692;51.074;-1.790;2023-03-01T07:44:40;102551.28;;;5.08;75.31
78407;BME280;67692;51.074;-1.790;2023-03-01T07:47:07;102561.56;;;5.05;75.27
78407;BME280;67692;51.074;-1.790;2023-03-01T07:49:35;102558.88;;;5.15;75.24
78407;BME280;67692;51.074;-1.790;2023-03-01T07:52:01;102560.63;;;5.13;74.48
78407;BME280;67692;51.074;-1.790;2023-03-01T07:54:28;102554.69;;;5.09;75.63
78407;BME280;67692;51.074;-1.790;2023-03-01T07:56:56;102553.91;;;5.04;75.58
78407;BME280;67692;51.074;-1.790;2023-03-01T07:59:22;102553.72;;;5.15;75.07
78407;BME280;67692;51.074;-1.790;2023-03-01T08:01:54;102548.66;;;5.12;74.99
78407;BME280;67692;51.074;-1.790;2023-03-01T08:04:20;102544.38;;;5.12;74.79
78407;BME280;67692;51.074;-1.790;2023-03-01T08:06:48;102547.88;;;5.06;74.94
78407;BME280;67692;51.074;-1.790;2023-03-01T08:09:15;102538.47;;;5.07;74.59
78407;BME280;67692;51.074;-1.790;2023-03-01T08:11:42;102536.75;;;5.07;74.63
78407;BME280;67692;51.074;-1.790;2023-03-01T08:14:08;102536.69;;;5.11;74.94
78407;BME280;67692;51.074;-1.790;2023-03-01T08:16:35;102533.31;;;5.08;74.82
78407;BME280;67692;51.074;-1.790;2023-03-01T08:19:04;102528.81;;;5.21;74.38
78407;BME280;67692;51.074;-1.790;2023-03-01T08:21:30;102534.81;;;5.19;74.00
78407;BME280;67692;51.074;-1.790;2023-03-01T08:23:58;102534.16;;;5.09;73.80
78407;BME280;67692;51.074;-1.790;2023-03-01T08:26:25;102525.47;;;5.16;74.45
78407;BME280;67692;51.074;-1.790;2023-03-01T08:28:52;102528.00;;;5.18;73.84
78407;BME280;67692;51.074;-1.790;2023-03-01T08:31:20;102525.50;;;5.15;74.04
78407;BME280;67692;51.074;-1.790;2023-03-01T08:33:49;102523.63;;;5.24;74.78
78407;BME280;67692;51.074;-1.790;2023-03-01T08:36:20;102522.78;;;5.24;73.66
78407;BME280;67692;51.074;-1.790;2023-03-01T08:38:47;102523.59;;;5.26;73.26
78407;BME280;67692;51.074;-1.790;2023-03-01T08:41:15;102524.31;;;5.32;72.95
78407;BME280;67692;51.074;-1.790;2023-03-01T08:43:42;102517.63;;;5.24;72.28
78407;BME280;67692;51.074;-1.790;2023-03-01T08:46:09;102518.25;;;5.38;72.00
78407;BME280;67692;51.074;-1.790;2023-03-01T08:48:35;102516.63;;;5.32;71.84
78407;BME280;67692;51.074;-1.790;2023-03-01T08:51:09;102515.94;;;5.23;71.68
78407;BME280;67692;51.074;-1.790;2023-03-01T08:53:37;102521.94;;;5.23;71.04
78407;BME280;67692;51.074;-1.790;2023-03-01T08:56:04;102515.88;;;5.26;71.22
78407;BME280;67692;51.074;-1.790;2023-03-01T08:58:32;102508.81;;;5.38;71.88
78407;BME280;67692;51.074;-1.790;2023-03-01T09:00:59;102516.53;;;5.38;71.02
78407;BME280;67692;51.074;-1.790;2023-03-01T09:03:27;102508.66;;;5.46;70.76
78407;BME280;67692;51.074;-1.790;2023-03-01T09:05:59;102510.25;;;5.53;70.78
78407;BME280;67692;51.074;-1.790;2023-03-01T09:08:26;102510.03;;;5.65;70.62
78407;BME280;67692;51.074;-1.790;2023-03-01T09:10:52;102515.28;;;5.59;69.76
78407;BME280;67692;51.074;-1.790;2023-03-01T09:13:19;102513.41;;;5.67;70.42
78407;BME280;67692;51.074;-1.790;2023-03-01T09:15:47;102510.13;;;5.59;70.21
78407;BME280;67692;51.074;-1.790;2023-03-01T09:18:13;102518.97;;;5.45;70.92
78407;BME280;67692;51.074;-1.790;2023-03-01T09:20:40;102519.47;;;5.65;70.44
78407;BME280;67692;51.074;-1.790;2023-03-01T09:23:07;102516.97;;;5.60;70.88
78407;BME280;67692;51.074;-1.790;2023-03-01T09:25:34;102512.91;;;5.47;70.05
78407;BME280;67692;51.074;-1.790;2023-03-01T09:28:00;102511.81;;;5.60;70.81
78407;BME280;67692;51.074;-1.790;2023-03-01T09:30:27;102511.75;;;5.63;70.73
78407;BME280;67692;51.074;-1.790;2023-03-01T09:32:56;102504.75;;;5.72;70.76
78407;BME280;67692;51.074;-1.790;2023-03-01T09:35:22;102510.56;;;5.81;70.64
78407;BME280;67692;51.074;-1.790;2023-03-01T09:37:49;102504.50;;;5.85;70.31
78407;BME280;67692;51.074;-1.790;2023-03-01T09:40:18;102506.13;;;5.89;70.17
78407;BME280;67692;51.074;-1.790;2023-03-01T09:42:53;102499.44;;;5.81;69.56
78407;BME280;67692;51.074;-1.790;2023-03-01T09:45:28;102505.34;;;5.86;70.31
78407;BME280;67692;51.074;-1.790;2023-03-01T09:47:57;102490.97;;;5.76;70.14
78407;BME280;67692;51.074;-1.790;2023-03-01T09:50:26;102482.22;;;5.84;69.46
78407;BME280;67692;51.074;-1.790;2023-03-01T09:53:00;102482.13;;;5.89;69.48
78407;BME280;67692;51.074;-1.790;2023-03-01T09:55:31;102480.41;;;5.91;68.68
78407;BME280;67692;51.074;-1.790;2023-03-01T09:58:04;102475.00;;;6.03;69.31
78407;BME280;67692;51.074;-1.790;2023-03-01T10:00:38;102473.06;;;6.14;68.85
78407;BME280;67692;51.074;-1.790;2023-03-01T10:03:16;102473.38;;;5.99;67.93
78407;BME280;67692;51.074;-1.790;2023-03-01T10:05:49;102470.94;;;5.94;67.94
78407;BME280;67692;51.074;-1.790;2023-03-01T10:08:28;102474.47;;;5.86;68.57
78407;BME280;67692;51.074;-1.790;2023-03-01T10:10:58;102473.56;;;5.90;68.56
78407;BME280;67692;51.074;-1.790;2023-03-01T10:13:27;102467.34;;;6.02;67.34
78407;BME280;67692;51.074;-1.790;2023-03-01T10:15:57;102463.81;;;6.06;67.69
78407;BME280;67692;51.074;-1.790;2023-03-01T10:18:30;102470.50;;;6.14;68.11
78407;BME280;67692;51.074;-1.790;2023-03-01T10:21:00;102459.25;;;6.18;67.09
78407;BME280;67692;51.074;-1.790;2023-03-01T10:23:29;102456.44;;;6.29;67.85
78407;BME280;67692;51.074;-1.790;2023-03-01T10:26:36;102457.00;;;6.42;66.96
78407;BME280;67692;51.074;-1.790;2023-03-01T10:29:06;102448.50;;;6.40;66.17
78407;BME280;67692;51.074;-1.790;2023-03-01T10:31:39;102442.59;;;6.35;66.43
78407;BME280;67692;51.074;-1.790;2023-03-01T10:34:12;102448.88;;;6.21;67.50
78407;BME280;67692;51.074;-1.790;2023-03-01T10:36:39;102454.78;;;6.26;68.14
78407;BME280;67692;51.074;-1.790;2023-03-01T10:39:13;102438.81;;;6.12;68.48
78407;BME280;67692;51.074;-1.790;2023-03-01T10:41:53;102443.28;;;6.04;69.31
78407;BME280;67692;51.074;-1.790;2023-03-01T10:44:42;102445.72;;;6.10;68.68
78407;BME280;67692;51.074;-1.790;2023-03-01T10:47:15;102440.72;;;6.03;68.29
78407;BME280;67692;51.074;-1.790;2023-03-01T10:49:58;102452.63;;;6.08;68.48
78407;BME280;67692;51.074;-1.790;2023-03-01T10:52:29;102445.66;;;6.13;68.80
78407;BME280;67692;51.074;-1.790;2023-03-01T10:54:58;102449.69;;;6.25;68.50
78407;BME280;67692;51.074;-1.790;2023-03-01T10:57:35;102446.25;;;6.24;68.74
78407;BME280;67692;51.074;-1.790;2023-03-01T11:00:21;102441.69;;;6.36;68.79
78407;BME280;67692;51.074;-1.790;2023-03-01T11:02:50;102439.88;;;6.41;67.82
78407;BME280;67692;51.074;-1.790;2023-03-01T11:05:21;102433.25;;;6.31;68.00
78407;BME280;67692;51.074;-1.790;2023-03-01T11:07:51;102428.19;;;6.28;67.30
78407;BME280;67692;51.074;-1.790;2023-03-01T11:10:20;102436.31;;;6.46;67.33
78407;BME280;67692;51.074;-1.790;2023-03-01T11:12:47;102432.31;;;6.33;67.57
78407;BME280;67692;51.074;-1.790;2023-03-01T11:15:23;102423.44;;;6.46;67.77
78407;BME280;67692;51.074;-1.790;2023-03-01T11:17:51;102421.94;;;6.38;67.34
78407;BME280;67692;51.074;-1.790;2023-03-01T11:20:25;102427.53;;;6.55;67.55
78407;BME280;67692;51.074;-1.790;2023-03-01T11:22:54;102419.06;;;6.50;66.83
78407;BME280;67692;51.074;-1.790;2023-03-01T11:25:25;102410.50;;;6.51;66.34
78407;BME280;67692;51.074;-1.790;2023-03-01T11:27:53;102402.25;;;6.35;66.76
78407;BME280;67692;51.074;-1.790;2023-03-01T11:30:24;102395.19;;;6.45;66.95
78407;BME280;67692;51.074;-1.790;2023-03-01T11:33:05;102391.31;;;6.63;66.29
78407;BME280;67692;51.074;-1.790;2023-03-01T11:35:37;102393.03;;;6.62;66.54
78407;BME280;67692;51.074;-1.790;2023-03-01T11:38:16;102386.69;;;6.75;66.41
78407;BME280;67692;51.074;-1.790;2023-03-01T11:40:49;102389.75;;;6.57;66.34
78407;BME280;67692;51.074;-1.790;2023-03-01T11:43:23;102397.53;;;6.54;65.75
78407;BME280;67692;51.074;-1.790;2023-03-01T11:46:15;102388.13;;;6.53;65.63
78407;BME280;67692;51.074;-1.790;2023-03-01T11:48:53;102393.31;;;6.50;65.93
78407;BME280;67692;51.074;-1.790;2023-03-01T11:51:38;102391.63;;;6.49;66.28
78407;BME280;67692;51.074;-1.790;2023-03-01T11:54:26;102390.13;;;6.42;66.93
78407;BME280;67692;51.074;-1.790;2023-03-01T11:57:00;102390.88;;;6.45;67.30
78407;BME280;67692;51.074;-1.790;2023-03-01T11:59:41;102396.88;;;6.46;67.30
78407;BME280;67692;51.074;-1.790;2023-03-01T12:06:07;102373.19;;;6.32;67.40
78407;BME280;67692;51.074;-1.790;2023-03-01T12:08:43;102355.09;;;6.35;67.60
78407;BME280;67692;51.074;-1.790;2023-03-01T12:11:22;102353.03;;;6.49;66.81
78407;BME280;67692;51.074;-1.790;2023-03-01T12:14:06;102355.38;;;6.58;66.79
78407;BME280;67692;51.074;-1.790;2023-03-01T12:16:46;102350.31;;;6.55;66.64
78407;BME280;67692;51.074;-1.790;2023-03-01T12:19:33;102350.41;;;6.52;66.56
78407;BME280;67692;51.074;-1.790;2023-03-01T12:22:16;102339.03;;;6.61;66.19
78407;BME280;67692;51.074;-1.790;2023-03-01T12:25:10;102340.63;;;6.65;66.30
78407;BME280;67692;51.074;-1.790;2023-03-01T12:30:56;102335.84;;;6.83;65.61
78407;BME280;67692;51.074;-1.790;2023-03-01T12:33:32;102325.56;;;6.83;65.18
78407;BME280;67692;51.074;-1.790;2023-03-01T12:39:01;102320.22;;;6.90;65.54
78407;BME280;67692;51.074;-1.790;2023-03-01T12:41:43;102313.25;;;6.95;65.12
78407;BME280;67692;51.074;-1.790;2023-03-01T12:44:24;102305.81;;;6.84;65.73
78407;BME280;67692;51.074;-1.790;2023-03-01T12:47:12;102298.84;;;6.88;66.22
78407;BME280;67692;51.074;-1.790;2023-03-01T12:49:47;102291.06;;;6.89;66.08
78407;BME280;67692;51.074;-1.790;2023-03-01T12:52:19;102285.31;;;7.10;66.25
78407;BME280;67692;51.074;-1.790;2023-03-01T12:54:49;102275.47;;;7.23;65.53
78407;BME280;67692;51.074;-1.790;2023-03-01T12:57:25;102265.09;;;7.26;65.68
78407;BME280;67692;51.074;-1.790;2023-03-01T13:00:02;102259.75;;;7.32;65.99
78407;BME280;67692;51.074;-1.790;2023-03-01T13:02:39;102261.03;;;7.47;64.77
78407;BME280;67692;51.074;-1.790;2023-03-01T13:05:24;102267.22;;;7.41;65.06
78407;BME280;67692;51.074;-1.790;2023-03-01T13:07:56;102263.91;;;7.36;64.78
78407;BME280;67692;51.074;-1.790;2023-03-01T13:10:30;102265.69;;;7.34;65.20
78407;BME280;67692;51.074;-1.790;2023-03-01T13:13:21;102259.00;;;7.29;65.51